Main page
METAR-TAF:

METAR-TAF

Airports :

Kasane Airport

Kasane, Botswana

latitude: 17-49S, longitude: 025-09E, elevation: 968 m

Current weather observation

The report was made 3 hours and 12 minutes ago, at 18:00 UTC
Calm wind
Temperature 23°C
Humidity 83%
Pressure 1013 hPa
Visibility 10 km or more
Few clouds at a height of 3000 ft, Cumulonimbus.

METAR: FBKE 111800Z 00000KT 9999 FEW030CB 23/20 Q1013

Time: 23:12 (21:12 UTC)

Forecast

The report was made 9 hours and 12 minutes ago, at 12:00 UTC
Forecast valid from 11 at 15 UTC to 11 at 24 UTC
Wind 7 kt from the South/Southwest
Visibility 10 km or more
Scattered clouds at a height of 2500 ft
Few clouds at a height of 4000 ft, Cumulonimbus.

TAF: FBKE 111200Z 1115/1124 21007KT 9999 SCT025 FEW040CB

Weather observations and forecasts of more than 4000 airports (METAR and TAF reports).

The available stations are represented by yellow and red dots on the map.

Hover mouse over dot to see the name of the station.

Then click to see weather observations and forecasts.

To change the map : click on the green buttons with a black cross to zoom in, on the green button with a dash to zoom out, or on the green arrows for adjacent maps.


METAR-TAF: